sensor_id;sensor_type;location;lat;lon;timestamp;P1;durP1;ratioP1;P2;durP2;ratioP2
42754;SDS011;28407;51.830;5.684;2023-05-07T00:01:44;2.25;;;1.80;;
42754;SDS011;28407;51.830;5.684;2023-05-07T00:03:45;2.17;;;1.80;;
42754;SDS011;28407;51.830;5.684;2023-05-07T00:05:46;2.25;;;1.77;;
42754;SDS011;28407;51.830;5.684;2023-05-07T00:07:46;2.40;;;1.90;;
42754;SDS011;28407;51.830;5.684;2023-05-07T00:09:47;1.90;;;1.63;;
42754;SDS011;28407;51.830;5.684;2023-05-07T00:11:48;1.75;;;1.60;;
42754;SDS011;28407;51.830;5.684;2023-05-07T00:13:48;2.00;;;1.60;;
42754;SDS011;28407;51.830;5.684;2023-05-07T00:15:49;2.67;;;1.80;;
42754;SDS011;28407;51.830;5.684;2023-05-07T00:17:49;1.92;;;1.73;;
42754;SDS011;28407;51.830;5.684;2023-05-07T00:19:50;1.73;;;1.60;;
42754;SDS011;28407;51.830;5.684;2023-05-07T00:21:51;3.67;;;2.30;;
42754;SDS011;28407;51.830;5.684;2023-05-07T00:23:53;2.28;;;1.60;;
42754;SDS011;28407;51.830;5.684;2023-05-07T00:25:54;2.45;;;1.90;;
42754;SDS011;28407;51.830;5.684;2023-05-07T00:27:55;1.90;;;1.67;;
42754;SDS011;28407;51.830;5.684;2023-05-07T00:29:57;2.38;;;1.67;;
42754;SDS011;28407;51.830;5.684;2023-05-07T00:31:58;1.73;;;1.42;;
42754;SDS011;28407;51.830;5.684;2023-05-07T00:33:58;2.80;;;1.60;;
42754;SDS011;28407;51.830;5.684;2023-05-07T00:35:59;1.70;;;1.50;;
42754;SDS011;28407;51.830;5.684;2023-05-07T00:38:01;2.03;;;1.58;;
42754;SDS011;28407;51.830;5.684;2023-05-07T00:40:02;1.98;;;1.63;;
42754;SDS011;28407;51.830;5.684;2023-05-07T00:42:07;2.28;;;2.08;;
42754;SDS011;28407;51.830;5.684;2023-05-07T00:44:08;2.03;;;1.63;;
42754;SDS011;28407;51.830;5.684;2023-05-07T00:46:08;2.00;;;1.50;;
42754;SDS011;28407;51.830;5.684;2023-05-07T00:48:11;4.07;;;1.75;;
42754;SDS011;28407;51.830;5.684;2023-05-07T00:50:12;1.88;;;1.55;;
42754;SDS011;28407;51.830;5.684;2023-05-07T00:52:14;2.83;;;2.30;;
42754;SDS011;28407;51.830;5.684;2023-05-07T00:54:16;2.30;;;1.70;;
42754;SDS011;28407;51.830;5.684;2023-05-07T00:56:17;2.28;;;1.80;;
42754;SDS011;28407;51.830;5.684;2023-05-07T00:58:17;2.42;;;1.70;;
42754;SDS011;28407;51.830;5.684;2023-05-07T01:00:19;2.47;;;1.85;;
42754;SDS011;28407;51.830;5.684;2023-05-07T01:02:21;2.08;;;1.63;;
42754;SDS011;28407;51.830;5.684;2023-05-07T01:04:21;1.40;;;1.30;;
42754;SDS011;28407;51.830;5.684;2023-05-07T01:06:22;2.45;;;1.48;;
42754;SDS011;28407;51.830;5.684;2023-05-07T01:08:25;1.70;;;1.33;;
42754;SDS011;28407;51.830;5.684;2023-05-07T01:10:28;2.03;;;1.63;;
42754;SDS011;28407;51.830;5.684;2023-05-07T01:12:30;2.33;;;1.63;;
42754;SDS011;28407;51.830;5.684;2023-05-07T01:14:31;1.73;;;1.63;;
42754;SDS011;28407;51.830;5.684;2023-05-07T01:16:33;1.95;;;1.70;;
42754;SDS011;28407;51.830;5.684;2023-05-07T01:18:33;3.30;;;2.38;;
42754;SDS011;28407;51.830;5.684;2023-05-07T01:20:34;2.38;;;1.92;;
42754;SDS011;28407;51.830;5.684;2023-05-07T01:22:36;3.15;;;1.98;;
42754;SDS011;28407;51.830;5.684;2023-05-07T01:24:38;1.85;;;1.40;;
42754;SDS011;28407;51.830;5.684;2023-05-07T01:26:40;2.00;;;1.80;;
42754;SDS011;28407;51.830;5.684;2023-05-07T01:30:42;2.80;;;1.98;;
42754;SDS011;28407;51.830;5.684;2023-05-07T01:33:04;3.33;;;1.88;;
42754;SDS011;28407;51.830;5.684;2023-05-07T01:35:09;2.67;;;2.05;;
42754;SDS011;28407;51.830;5.684;2023-05-07T01:37:13;2.58;;;2.03;;
42754;SDS011;28407;51.830;5.684;2023-05-07T01:39:14;2.08;;;1.67;;
42754;SDS011;28407;51.830;5.684;2023-05-07T01:41:16;2.10;;;1.88;;
42754;SDS011;28407;51.830;5.684;2023-05-07T01:43:16;3.15;;;2.28;;
42754;SDS011;28407;51.830;5.684;2023-05-07T01:45:17;2.72;;;1.92;;
42754;SDS011;28407;51.830;5.684;2023-05-07T01:47:18;3.05;;;2.10;;
42754;SDS011;28407;51.830;5.684;2023-05-07T01:49:20;3.13;;;2.72;;
42754;SDS011;28407;51.830;5.684;2023-05-07T01:51:21;2.75;;;2.17;;
42754;SDS011;28407;51.830;5.684;2023-05-07T01:53:22;2.35;;;1.85;;
42754;SDS011;28407;51.830;5.684;2023-05-07T01:55:23;2.30;;;1.75;;
42754;SDS011;28407;51.830;5.684;2023-05-07T01:57:23;3.88;;;2.20;;
42754;SDS011;28407;51.830;5.684;2023-05-07T01:59:24;3.00;;;2.35;;
42754;SDS011;28407;51.830;5.684;2023-05-07T02:01:25;2.60;;;2.13;;
42754;SDS011;28407;51.830;5.684;2023-05-07T02:03:26;3.83;;;2.13;;
42754;SDS011;28407;51.830;5.684;2023-05-07T02:05:35;3.30;;;2.15;;
42754;SDS011;28407;51.830;5.684;2023-05-07T02:07:41;3.08;;;2.60;;
42754;SDS011;28407;51.830;5.684;2023-05-07T02:09:42;3.97;;;2.35;;
42754;SDS011;28407;51.830;5.684;2023-05-07T02:11:43;3.00;;;2.05;;
42754;SDS011;28407;51.830;5.684;2023-05-07T02:13:44;2.97;;;2.15;;
42754;SDS011;28407;51.830;5.684;2023-05-07T02:15:45;2.47;;;2.00;;
42754;SDS011;28407;51.830;5.684;2023-05-07T02:18:02;2.70;;;2.20;;
42754;SDS011;28407;51.830;5.684;2023-05-07T02:20:06;3.40;;;2.53;;
42754;SDS011;28407;51.830;5.684;2023-05-07T02:22:13;2.85;;;2.17;;
42754;SDS011;28407;51.830;5.684;2023-05-07T02:24:13;2.88;;;2.00;;
42754;SDS011;28407;51.830;5.684;2023-05-07T02:26:14;9.52;;;3.17;;
42754;SDS011;28407;51.830;5.684;2023-05-07T02:28:15;3.13;;;2.40;;
42754;SDS011;28407;51.830;5.684;2023-05-07T02:30:36;2.63;;;2.05;;
42754;SDS011;28407;51.830;5.684;2023-05-07T02:32:37;3.53;;;2.47;;
42754;SDS011;28407;51.830;5.684;2023-05-07T02:34:38;3.03;;;2.22;;
42754;SDS011;28407;51.830;5.684;2023-05-07T02:36:38;2.75;;;2.33;;
42754;SDS011;28407;51.830;5.684;2023-05-07T02:38:44;2.72;;;2.05;;
42754;SDS011;28407;51.830;5.684;2023-05-07T02:40:45;2.85;;;2.22;;
42754;SDS011;28407;51.830;5.684;2023-05-07T02:42:46;2.05;;;1.80;;
42754;SDS011;28407;51.830;5.684;2023-05-07T02:44:46;2.83;;;2.50;;
42754;SDS011;28407;51.830;5.684;2023-05-07T02:46:47;2.28;;;2.05;;
42754;SDS011;28407;51.830;5.684;2023-05-07T02:48:48;3.17;;;2.88;;
42754;SDS011;28407;51.830;5.684;2023-05-07T02:50:48;2.80;;;2.35;;
42754;SDS011;28407;51.830;5.684;2023-05-07T02:52:49;2.67;;;2.15;;
42754;SDS011;28407;51.830;5.684;2023-05-07T02:54:50;3.55;;;2.55;;
42754;SDS011;28407;51.830;5.684;2023-05-07T02:56:50;3.33;;;2.75;;
42754;SDS011;28407;51.830;5.684;2023-05-07T02:58:51;3.30;;;2.38;;
42754;SDS011;28407;51.830;5.684;2023-05-07T03:00:54;3.67;;;2.65;;
42754;SDS011;28407;51.830;5.684;2023-05-07T03:03:21;3.97;;;3.20;;
42754;SDS011;28407;51.830;5.684;2023-05-07T03:05:21;3.15;;;2.40;;
42754;SDS011;28407;51.830;5.684;2023-05-07T03:07:22;3.88;;;2.67;;
42754;SDS011;28407;51.830;5.684;2023-05-07T03:09:22;3.72;;;2.90;;
42754;SDS011;28407;51.830;5.684;2023-05-07T03:11:23;3.70;;;2.92;;
42754;SDS011;28407;51.830;5.684;2023-05-07T03:13:24;3.58;;;3.08;;
42754;SDS011;28407;51.830;5.684;2023-05-07T03:15:25;5.63;;;3.17;;
42754;SDS011;28407;51.830;5.684;2023-05-07T03:17:26;3.63;;;3.08;;
42754;SDS011;28407;51.830;5.684;2023-05-07T03:19:27;3.60;;;3.17;;
42754;SDS011;28407;51.830;5.684;2023-05-07T03:21:28;6.50;;;3.80;;
42754;SDS011;28407;51.830;5.684;2023-05-07T03:23:28;5.00;;;3.58;;
42754;SDS011;28407;51.830;5.684;2023-05-07T03:25:29;4.95;;;3.53;;
42754;SDS011;28407;51.830;5.684;2023-05-07T03:27:31;5.43;;;4.15;;
42754;SDS011;28407;51.830;5.684;2023-05-07T03:29:31;6.60;;;4.72;;
42754;SDS011;28407;51.830;5.684;2023-05-07T03:31:32;6.13;;;4.53;;
42754;SDS011;28407;51.830;5.684;2023-05-07T03:33:34;4.85;;;4.05;;
42754;SDS011;28407;51.830;5.684;2023-05-07T03:35:35;5.13;;;4.63;;
42754;SDS011;28407;51.830;5.684;2023-05-07T03:37:36;5.40;;;4.88;;
42754;SDS011;28407;51.830;5.684;2023-05-07T03:39:37;5.93;;;4.57;;
42754;SDS011;28407;51.830;5.684;2023-05-07T03:41:38;5.45;;;4.95;;
42754;SDS011;28407;51.830;5.684;2023-05-07T03:43:39;6.30;;;5.30;;
42754;SDS011;28407;51.830;5.684;2023-05-07T03:45:43;6.03;;;4.90;;
42754;SDS011;28407;51.830;5.684;2023-05-07T03:47:48;7.50;;;5.00;;
42754;SDS011;28407;51.830;5.684;2023-05-07T03:49:52;5.30;;;4.60;;
42754;SDS011;28407;51.830;5.684;2023-05-07T03:51:55;5.97;;;5.10;;
42754;SDS011;28407;51.830;5.684;2023-05-07T03:53:56;6.53;;;5.70;;
42754;SDS011;28407;51.830;5.684;2023-05-07T03:55:58;6.22;;;5.60;;
42754;SDS011;28407;51.830;5.684;2023-05-07T03:57:58;6.78;;;5.72;;
42754;SDS011;28407;51.830;5.684;2023-05-07T04:00:01;6.20;;;5.60;;
42754;SDS011;28407;51.830;5.684;2023-05-07T04:02:09;6.55;;;5.55;;
42754;SDS011;28407;51.830;5.684;2023-05-07T04:04:10;6.10;;;5.03;;
42754;SDS011;28407;51.830;5.684;2023-05-07T04:06:10;7.35;;;6.18;;
42754;SDS011;28407;51.830;5.684;2023-05-07T04:08:14;6.88;;;6.18;;
42754;SDS011;28407;51.830;5.684;2023-05-07T04:10:19;6.07;;;5.47;;
42754;SDS011;28407;51.830;5.684;2023-05-07T04:12:22;6.15;;;5.63;;
42754;SDS011;28407;51.830;5.684;2023-05-07T04:14:23;7.22;;;6.47;;
42754;SDS011;28407;51.830;5.684;2023-05-07T04:16:23;7.30;;;6.60;;
42754;SDS011;28407;51.830;5.684;2023-05-07T04:18:24;7.65;;;6.15;;
42754;SDS011;28407;51.830;5.684;2023-05-07T04:20:25;7.05;;;6.35;;
42754;SDS011;28407;51.830;5.684;2023-05-07T04:22:32;7.30;;;6.50;;
42754;SDS011;28407;51.830;5.684;2023-05-07T04:24:33;6.95;;;6.25;;
42754;SDS011;28407;51.830;5.684;2023-05-07T04:26:35;7.40;;;6.25;;
42754;SDS011;28407;51.830;5.684;2023-05-07T04:28:36;7.70;;;6.85;;
42754;SDS011;28407;51.830;5.684;2023-05-07T04:30:36;7.45;;;6.15;;
42754;SDS011;28407;51.830;5.684;2023-05-07T04:32:39;6.55;;;5.93;;
42754;SDS011;28407;51.830;5.684;2023-05-07T04:34:40;6.70;;;6.03;;
42754;SDS011;28407;51.830;5.684;2023-05-07T04:36:41;7.07;;;5.82;;
42754;SDS011;28407;51.830;5.684;2023-05-07T04:38:45;7.28;;;6.57;;
42754;SDS011;28407;51.830;5.684;2023-05-07T04:40:46;8.23;;;5.88;;
42754;SDS011;28407;51.830;5.684;2023-05-07T04:42:51;6.82;;;6.13;;
42754;SDS011;28407;51.830;5.684;2023-05-07T04:46:54;6.27;;;5.30;;
42754;SDS011;28407;51.830;5.684;2023-05-07T04:48:55;7.88;;;6.18;;
42754;SDS011;28407;51.830;5.684;2023-05-07T04:50:56;6.57;;;5.72;;
42754;SDS011;28407;51.830;5.684;2023-05-07T04:52:57;6.83;;;5.80;;
42754;SDS011;28407;51.830;5.684;2023-05-07T04:55:01;7.10;;;5.78;;
42754;SDS011;28407;51.830;5.684;2023-05-07T04:57:07;7.07;;;6.22;;
42754;SDS011;28407;51.830;5.684;2023-05-07T04:59:08;6.35;;;5.75;;
42754;SDS011;28407;51.830;5.684;2023-05-07T05:01:08;8.63;;;5.43;;
42754;SDS011;28407;51.830;5.684;2023-05-07T05:03:09;6.30;;;5.53;;
42754;SDS011;28407;51.830;5.684;2023-05-07T05:05:12;8.13;;;6.13;;
42754;SDS011;28407;51.830;5.684;2023-05-07T05:07:12;6.30;;;5.47;;
42754;SDS011;28407;51.830;5.684;2023-05-07T05:09:13;8.13;;;6.47;;
42754;SDS011;28407;51.830;5.684;2023-05-07T05:11:15;7.25;;;6.40;;
42754;SDS011;28407;51.830;5.684;2023-05-07T05:13:16;7.47;;;5.72;;
42754;SDS011;28407;51.830;5.684;2023-05-07T05:15:17;7.60;;;5.78;;
42754;SDS011;28407;51.830;5.684;2023-05-07T05:17:18;6.97;;;6.28;;
42754;SDS011;28407;51.830;5.684;2023-05-07T05:19:18;7.47;;;5.78;;
42754;SDS011;28407;51.830;5.684;2023-05-07T05:21:19;7.25;;;6.03;;
42754;SDS011;28407;51.830;5.684;2023-05-07T05:23:23;7.20;;;5.60;;
42754;SDS011;28407;51.830;5.684;2023-05-07T05:25:24;5.85;;;5.30;;
42754;SDS011;28407;51.830;5.684;2023-05-07T05:27:25;8.30;;;6.30;;
42754;SDS011;28407;51.830;5.684;2023-05-07T05:29:26;7.00;;;5.63;;
42754;SDS011;28407;51.830;5.684;2023-05-07T05:31:26;8.40;;;7.47;;
42754;SDS011;28407;51.830;5.684;2023-05-07T05:33:27;7.88;;;6.93;;
42754;SDS011;28407;51.830;5.684;2023-05-07T05:35:29;9.63;;;6.70;;
42754;SDS011;28407;51.830;5.684;2023-05-07T05:37:31;7.45;;;6.22;;
42754;SDS011;28407;51.830;5.684;2023-05-07T05:39:33;9.00;;;7.25;;
42754;SDS011;28407;51.830;5.684;2023-05-07T05:41:33;6.55;;;5.95;;
42754;SDS011;28407;51.830;5.684;2023-05-07T05:43:35;6.97;;;6.28;;
42754;SDS011;28407;51.830;5.684;2023-05-07T05:45:35;7.53;;;6.80;;
42754;SDS011;28407;51.830;5.684;2023-05-07T05:47:36;8.88;;;7.63;;
42754;SDS011;28407;51.830;5.684;2023-05-07T05:49:37;8.35;;;7.47;;
42754;SDS011;28407;51.830;5.684;2023-05-07T05:51:40;8.13;;;7.20;;
42754;SDS011;28407;51.830;5.684;2023-05-07T05:53:40;8.35;;;6.60;;
42754;SDS011;28407;51.830;5.684;2023-05-07T05:55:42;7.23;;;6.00;;
42754;SDS011;28407;51.830;5.684;2023-05-07T05:59:44;7.22;;;6.30;;
42754;SDS011;28407;51.830;5.684;2023-05-07T06:01:47;7.45;;;6.43;;
42754;SDS011;28407;51.830;5.684;2023-05-07T06:03:48;6.60;;;5.75;;
42754;SDS011;28407;51.830;5.684;2023-05-07T06:05:49;8.03;;;6.00;;
42754;SDS011;28407;51.830;5.684;2023-05-07T06:07:50;6.82;;;5.38;;
42754;SDS011;28407;51.830;5.684;2023-05-07T06:09:52;6.63;;;5.82;;
42754;SDS011;28407;51.830;5.684;2023-05-07T06:11:53;7.50;;;6.83;;
42754;SDS011;28407;51.830;5.684;2023-05-07T06:13:54;6.85;;;6.03;;
42754;SDS011;28407;51.830;5.684;2023-05-07T06:15:55;7.13;;;6.07;;
42754;SDS011;28407;51.830;5.684;2023-05-07T06:17:56;6.95;;;6.25;;
42754;SDS011;28407;51.830;5.684;2023-05-07T06:19:57;8.70;;;6.57;;
42754;SDS011;28407;51.830;5.684;2023-05-07T06:21:58;7.07;;;6.32;;
42754;SDS011;28407;51.830;5.684;2023-05-07T06:23:59;7.15;;;6.45;;
42754;SDS011;28407;51.830;5.684;2023-05-07T06:26:00;6.28;;;5.60;;
42754;SDS011;28407;51.830;5.684;2023-05-07T06:28:06;7.28;;;6.38;;
42754;SDS011;28407;51.830;5.684;2023-05-07T06:30:10;7.18;;;6.30;;
42754;SDS011;28407;51.830;5.684;2023-05-07T06:32:13;6.95;;;5.68;;
42754;SDS011;28407;51.830;5.684;2023-05-07T06:34:16;7.07;;;6.38;;
42754;SDS011;28407;51.830;5.684;2023-05-07T06:36:16;7.63;;;6.35;;
42754;SDS011;28407;51.830;5.684;2023-05-07T06:38:18;6.82;;;5.70;;
42754;SDS011;28407;51.830;5.684;2023-05-07T06:40:20;7.07;;;6.38;;
42754;SDS011;28407;51.830;5.684;2023-05-07T06:42:21;6.80;;;5.95;;
42754;SDS011;28407;51.830;5.684;2023-05-07T06:46:33;6.80;;;5.03;;
42754;SDS011;28407;51.830;5.684;2023-05-07T06:48:33;6.18;;;5.18;;
42754;SDS011;28407;51.830;5.684;2023-05-07T06:50:38;7.00;;;5.88;;
42754;SDS011;28407;51.830;5.684;2023-05-07T06:52:39;6.90;;;5.35;;
42754;SDS011;28407;51.830;5.684;2023-05-07T06:54:40;7.27;;;5.93;;
42754;SDS011;28407;51.830;5.684;2023-05-07T06:56:41;7.05;;;5.45;;
42754;SDS011;28407;51.830;5.684;2023-05-07T06:58:43;6.88;;;5.40;;
42754;SDS011;28407;51.830;5.684;2023-05-07T07:00:44;6.57;;;5.75;;
42754;SDS011;28407;51.830;5.684;2023-05-07T07:02:46;6.75;;;5.95;;
42754;SDS011;28407;51.830;5.684;2023-05-07T07:04:49;6.97;;;5.50;;
42754;SDS011;28407;51.830;5.684;2023-05-07T07:06:51;7.28;;;6.50;;
42754;SDS011;28407;51.830;5.684;2023-05-07T07:08:52;7.18;;;5.95;;
42754;SDS011;28407;51.830;5.684;2023-05-07T07:10:53;6.65;;;5.95;;
42754;SDS011;28407;51.830;5.684;2023-05-07T07:12:54;8.65;;;7.18;;
42754;SDS011;28407;51.830;5.684;2023-05-07T07:14:55;8.10;;;6.80;;
42754;SDS011;28407;51.830;5.684;2023-05-07T07:16:56;7.88;;;6.32;;
42754;SDS011;28407;51.830;5.684;2023-05-07T07:18:58;7.28;;;6.18;;
42754;SDS011;28407;51.830;5.684;2023-05-07T07:20:58;7.38;;;6.03;;
42754;SDS011;28407;51.830;5.684;2023-05-07T07:23:00;6.10;;;5.50;;
42754;SDS011;28407;51.830;5.684;2023-05-07T07:25:00;6.72;;;5.47;;
42754;SDS011;28407;51.830;5.684;2023-05-07T07:27:01;7.78;;;6.50;;
42754;SDS011;28407;51.830;5.684;2023-05-07T07:29:02;7.50;;;6.32;;
42754;SDS011;28407;51.830;5.684;2023-05-07T07:31:03;6.72;;;5.93;;
42754;SDS011;28407;51.830;5.684;2023-05-07T07:33:04;7.03;;;5.82;;
42754;SDS011;28407;51.830;5.684;2023-05-07T07:35:09;6.30;;;5.70;;
42754;SDS011;28407;51.830;5.684;2023-05-07T07:37:11;6.32;;;5.63;;
42754;SDS011;28407;51.830;5.684;2023-05-07T07:39:12;6.15;;;5.43;;
42754;SDS011;28407;51.830;5.684;2023-05-07T07:41:13;7.38;;;6.43;;
42754;SDS011;28407;51.830;5.684;2023-05-07T07:43:13;6.65;;;5.95;;
42754;SDS011;28407;51.830;5.684;2023-05-07T07:45:14;7.18;;;5.45;;
42754;SDS011;28407;51.830;5.684;2023-05-07T07:47:19;7.05;;;6.28;;
42754;SDS011;28407;51.830;5.684;2023-05-07T07:49:20;7.40;;;6.70;;
42754;SDS011;28407;51.830;5.684;2023-05-07T07:51:21;7.07;;;6.30;;
42754;SDS011;28407;51.830;5.684;2023-05-07T07:53:22;7.97;;;6.40;;
42754;SDS011;28407;51.830;5.684;2023-05-07T07:55:23;6.47;;;5.85;;
42754;SDS011;28407;51.830;5.684;2023-05-07T07:57:26;6.68;;;5.57;;
42754;SDS011;28407;51.830;5.684;2023-05-07T07:59:27;8.27;;;6.20;;
42754;SDS011;28407;51.830;5.684;2023-05-07T08:01:29;8.68;;;6.65;;
42754;SDS011;28407;51.830;5.684;2023-05-07T08:03:30;6.70;;;5.90;;
42754;SDS011;28407;51.830;5.684;2023-05-07T08:05:33;6.60;;;5.80;;
42754;SDS011;28407;51.830;5.684;2023-05-07T08:07:34;6.82;;;5.28;;
42754;SDS011;28407;51.830;5.684;2023-05-07T08:09:37;7.53;;;6.65;;
42754;SDS011;28407;51.830;5.684;2023-05-07T08:11:38;7.15;;;6.20;;
42754;SDS011;28407;51.830;5.684;2023-05-07T08:13:39;7.65;;;6.03;;
42754;SDS011;28407;51.830;5.684;2023-05-07T08:15:40;8.07;;;7.10;;
42754;SDS011;28407;51.830;5.684;2023-05-07T08:17:41;6.53;;;5.68;;
42754;SDS011;28407;51.830;5.684;2023-05-07T08:19:42;7.35;;;6.45;;
42754;SDS011;28407;51.830;5.684;2023-05-07T08:21:46;8.88;;;6.95;;
42754;SDS011;28407;51.830;5.684;2023-05-07T08:23:48;7.53;;;6.72;;
42754;SDS011;28407;51.830;5.684;2023-05-07T08:25:49;6.93;;;6.22;;
42754;SDS011;28407;51.830;5.684;2023-05-07T08:29:52;7.78;;;6.53;;
42754;SDS011;28407;51.830;5.684;2023-05-07T08:31:54;7.20;;;6.22;;
42754;SDS011;28407;51.830;5.684;2023-05-07T08:33:55;9.82;;;7.45;;
42754;SDS011;28407;51.830;5.684;2023-05-07T08:35:57;7.60;;;6.80;;
42754;SDS011;28407;51.830;5.684;2023-05-07T08:37:58;11.10;;;7.53;;
42754;SDS011;28407;51.830;5.684;2023-05-07T08:39:59;8.70;;;6.40;;
42754;SDS011;28407;51.830;5.684;2023-05-07T08:42:04;7.70;;;6.50;;
42754;SDS011;28407;51.830;5.684;2023-05-07T08:44:11;7.85;;;6.13;;
42754;SDS011;28407;51.830;5.684;2023-05-07T08:46:16;8.13;;;6.40;;
42754;SDS011;28407;51.830;5.684;2023-05-07T08:48:19;6.75;;;6.05;;
42754;SDS011;28407;51.830;5.684;2023-05-07T08:50:31;6.77;;;6.17;;
42754;SDS011;28407;51.830;5.684;2023-05-07T08:52:32;7.45;;;6.75;;
42754;SDS011;28407;51.830;5.684;2023-05-07T08:54:34;6.18;;;5.30;;
42754;SDS011;28407;51.830;5.684;2023-05-07T08:56:38;6.88;;;6.00;;
42754;SDS011;28407;51.830;5.684;2023-05-07T08:58:39;7.07;;;5.95;;
42754;SDS011;28407;51.830;5.684;2023-05-07T09:00:40;7.32;;;6.55;;
42754;SDS011;28407;51.830;5.684;2023-05-07T09:02:42;7.10;;;6.40;;
42754;SDS011;28407;51.830;5.684;2023-05-07T09:04:44;8.13;;;7.07;;
42754;SDS011;28407;51.830;5.684;2023-05-07T09:06:44;7.07;;;5.40;;
42754;SDS011;28407;51.830;5.684;2023-05-07T09:08:51;6.07;;;5.03;;
42754;SDS011;28407;51.830;5.684;2023-05-07T09:10:54;6.65;;;5.90;;
42754;SDS011;28407;51.830;5.684;2023-05-07T09:12:56;7.88;;;5.68;;
42754;SDS011;28407;51.830;5.684;2023-05-07T09:14:58;6.32;;;5.38;;
42754;SDS011;28407;51.830;5.684;2023-05-07T09:17:00;7.20;;;6.00;;
42754;SDS011;28407;51.830;5.684;2023-05-07T09:19:01;8.52;;;7.40;;
42754;SDS011;28407;51.830;5.684;2023-05-07T09:21:02;6.65;;;5.72;;
42754;SDS011;28407;51.830;5.684;2023-05-07T09:23:02;6.18;;;5.03;;
42754;SDS011;28407;51.830;5.684;2023-05-07T09:25:05;5.85;;;4.85;;
42754;SDS011;28407;51.830;5.684;2023-05-07T09:27:07;5.45;;;4.80;;
42754;SDS011;28407;51.830;5.684;2023-05-07T09:29:10;5.80;;;5.20;;
42754;SDS011;28407;51.830;5.684;2023-05-07T09:31:11;5.93;;;5.15;;
42754;SDS011;28407;51.830;5.684;2023-05-07T09:33:12;6.13;;;5.10;;
42754;SDS011;28407;51.830;5.684;2023-05-07T09:35:16;5.05;;;4.40;;
42754;SDS011;28407;51.830;5.684;2023-05-07T09:37:19;4.78;;;4.22;;
42754;SDS011;28407;51.830;5.684;2023-05-07T09:39:20;5.30;;;4.40;;
42754;SDS011;28407;51.830;5.684;2023-05-07T09:41:21;4.72;;;3.83;;
42754;SDS011;28407;51.830;5.684;2023-05-07T09:43:33;6.32;;;5.35;;
42754;SDS011;28407;51.830;5.684;2023-05-07T09:45:36;7.30;;;6.00;;
42754;SDS011;28407;51.830;5.684;2023-05-07T09:47:37;5.72;;;4.53;;
42754;SDS011;28407;51.830;5.684;2023-05-07T09:49:46;5.53;;;4.88;;
42754;SDS011;28407;51.830;5.684;2023-05-07T09:51:50;7.22;;;5.70;;
42754;SDS011;28407;51.830;5.684;2023-05-07T09:53:54;5.70;;;4.65;;
42754;SDS011;28407;51.830;5.684;2023-05-07T09:55:57;6.00;;;4.85;;
42754;SDS011;28407;51.830;5.684;2023-05-07T09:57:59;6.55;;;5.10;;
42754;SDS011;28407;51.830;5.684;2023-05-07T10:00:02;7.72;;;5.70;;
42754;SDS011;28407;51.830;5.684;2023-05-07T10:02:20;5.82;;;4.60;;
42754;SDS011;28407;51.830;5.684;2023-05-07T10:04:26;6.05;;;5.25;;
42754;SDS011;28407;51.830;5.684;2023-05-07T10:06:27;6.00;;;4.93;;
42754;SDS011;28407;51.830;5.684;2023-05-07T10:08:29;5.50;;;4.45;;
42754;SDS011;28407;51.830;5.684;2023-05-07T10:10:33;4.82;;;4.05;;
42754;SDS011;28407;51.830;5.684;2023-05-07T10:12:34;5.63;;;4.03;;
42754;SDS011;28407;51.830;5.684;2023-05-07T10:14:41;4.57;;;3.88;;
42754;SDS011;28407;51.830;5.684;2023-05-07T10:16:42;4.82;;;4.32;;
42754;SDS011;28407;51.830;5.684;2023-05-07T10:18:47;5.25;;;4.50;;
42754;SDS011;28407;51.830;5.684;2023-05-07T10:20:53;4.75;;;4.10;;
42754;SDS011;28407;51.830;5.684;2023-05-07T10:22:56;5.50;;;4.07;;
42754;SDS011;28407;51.830;5.684;2023-05-07T10:25:06;6.25;;;4.82;;
42754;SDS011;28407;51.830;5.684;2023-05-07T10:27:16;4.28;;;3.88;;
42754;SDS011;28407;51.830;5.684;2023-05-07T10:29:29;4.90;;;3.78;;
42754;SDS011;28407;51.830;5.684;2023-05-07T10:34:02;5.38;;;3.85;;
42754;SDS011;28407;51.830;5.684;2023-05-07T10:36:08;5.63;;;4.07;;
42754;SDS011;28407;51.830;5.684;2023-05-07T10:38:09;6.30;;;4.20;;
42754;SDS011;28407;51.830;5.684;2023-05-07T10:40:13;4.88;;;3.80;;
42754;SDS011;28407;51.830;5.684;2023-05-07T10:42:14;4.85;;;3.80;;
42754;SDS011;28407;51.830;5.684;2023-05-07T10:44:27;4.70;;;4.00;;
42754;SDS011;28407;51.830;5.684;2023-05-07T10:46:29;5.68;;;3.38;;
42754;SDS011;28407;51.830;5.684;2023-05-07T10:51:20;4.47;;;3.40;;
42754;SDS011;28407;51.830;5.684;2023-05-07T10:53:24;4.30;;;3.50;;
42754;SDS011;28407;51.830;5.684;2023-05-07T10:55:42;4.57;;;2.70;;
42754;SDS011;28407;51.830;5.684;2023-05-07T10:57:52;5.22;;;3.28;;
42754;SDS011;28407;51.830;5.684;2023-05-07T10:59:58;3.97;;;3.03;;
42754;SDS011;28407;51.830;5.684;2023-05-07T11:02:04;6.15;;;4.40;;
42754;SDS011;28407;51.830;5.684;2023-05-07T11:04:25;4.85;;;3.80;;
42754;SDS011;28407;51.830;5.684;2023-05-07T11:06:36;7.05;;;4.60;;
42754;SDS011;28407;51.830;5.684;2023-05-07T11:08:55;4.90;;;3.60;;
42754;SDS011;28407;51.830;5.684;2023-05-07T11:11:03;3.75;;;2.88;;
42754;SDS011;28407;51.830;5.684;2023-05-07T11:13:18;5.97;;;3.33;;
42754;SDS011;28407;51.830;5.684;2023-05-07T11:15:39;5.40;;;3.50;;
42754;SDS011;28407;51.830;5.684;2023-05-07T11:18:04;5.15;;;3.80;;
42754;SDS011;28407;51.830;5.684;2023-05-07T11:20:10;4.65;;;3.35;;
42754;SDS011;28407;51.830;5.684;2023-05-07T11:24:40;4.72;;;3.72;;
42754;SDS011;28407;51.830;5.684;2023-05-07T11:26:44;4.60;;;3.47;;
42754;SDS011;28407;51.830;5.684;2023-05-07T11:28:47;4.38;;;3.33;;
42754;SDS011;28407;51.830;5.684;2023-05-07T11:30:49;4.38;;;3.08;;
42754;SDS011;28407;51.830;5.684;2023-05-07T11:32:53;4.88;;;3.20;;
42754;SDS011;28407;51.830;5.684;2023-05-07T11:34:54;4.13;;;3.53;;
42754;SDS011;28407;51.830;5.684;2023-05-07T11:36:56;4.30;;;3.25;;
42754;SDS011;28407;51.830;5.684;2023-05-07T11:39:27;4.90;;;3.10;;
42754;SDS011;28407;51.830;5.684;2023-05-07T11:41:33;4.25;;;3.38;;
42754;SDS011;28407;51.830;5.684;2023-05-07T11:43:37;3.78;;;2.88;;
42754;SDS011;28407;51.830;5.684;2023-05-07T11:45:39;4.00;;;2.90;;
42754;SDS011;28407;51.830;5.684;2023-05-07T11:47:41;4.38;;;3.10;;
42754;SDS011;28407;51.830;5.684;2023-05-07T11:49:45;4.05;;;3.33;;
42754;SDS011;28407;51.830;5.684;2023-05-07T11:51:48;3.72;;;2.90;;
42754;SDS011;28407;51.830;5.684;2023-05-07T11:53:49;4.40;;;3.45;;
42754;SDS011;28407;51.830;5.684;2023-05-07T11:55:53;3.88;;;3.42;;
42754;SDS011;28407;51.830;5.684;2023-05-07T11:57:56;5.28;;;3.00;;
42754;SDS011;28407;51.830;5.684;2023-05-07T11:59:58;4.22;;;3.20;;
42754;SDS011;28407;51.830;5.684;2023-05-07T12:02:01;4.03;;;3.00;;
42754;SDS011;28407;51.830;5.684;2023-05-07T12:04:03;3.40;;;2.47;;
42754;SDS011;28407;51.830;5.684;2023-05-07T12:06:05;4.32;;;3.05;;
42754;SDS011;28407;51.830;5.684;2023-05-07T12:08:06;4.68;;;3.10;;
42754;SDS011;28407;51.830;5.684;2023-05-07T12:10:07;3.03;;;2.15;;
42754;SDS011;28407;51.830;5.684;2023-05-07T12:12:08;3.70;;;2.83;;
42754;SDS011;28407;51.830;5.684;2023-05-07T12:14:09;4.53;;;3.13;;
42754;SDS011;28407;51.830;5.684;2023-05-07T12:16:10;3.25;;;2.72;;
42754;SDS011;28407;51.830;5.684;2023-05-07T12:18:11;5.87;;;3.37;;
42754;SDS011;28407;51.830;5.684;2023-05-07T12:20:13;3.47;;;2.67;;
42754;SDS011;28407;51.830;5.684;2023-05-07T12:22:14;4.32;;;3.55;;
42754;SDS011;28407;51.830;5.684;2023-05-07T12:24:15;3.67;;;2.67;;
42754;SDS011;28407;51.830;5.684;2023-05-07T12:26:16;3.35;;;2.50;;
42754;SDS011;28407;51.830;5.684;2023-05-07T12:28:17;4.53;;;3.05;;
42754;SDS011;28407;51.830;5.684;2023-05-07T12:32:20;4.53;;;2.78;;
42754;SDS011;28407;51.830;5.684;2023-05-07T12:34:21;3.75;;;2.65;;
42754;SDS011;28407;51.830;5.684;2023-05-07T12:36:22;3.92;;;2.95;;
42754;SDS011;28407;51.830;5.684;2023-05-07T12:38:23;5.38;;;2.97;;
42754;SDS011;28407;51.830;5.684;2023-05-07T12:40:24;3.72;;;2.72;;